Lawrence H.gianella — NBBK — position and weather

sailwx.info

Track history (hours):
 
Tides and Currents Weather Stations Pressure Air Temp Water Temp Dewpoint Dewpoint Depression Visibility Wind Speed Wind Dir Waves Ship Positions

Lawrence H.gianella

Last reported at 2017-Sep-24 04:04 UTC. Time now 2017-Sep-25 13:38 UTC.
Position N 29°44' W 095°01'.

Type: Ship. MMSI: 367128000.

Date/timePositionNaut miles runAvg speedWind from/ knotsBaromVisibWave heightAir tempDewpointWater temp
2017-Sep-24 04:04N 29°44' W 095°01'0 0.0
2017-Sep-24 03:52N 29°44' W 095°01'0 0.1
2017-Sep-24 03:30N 29°44' W 095°01'1 2.5
2017-Sep-24 03:00N 29°42' W 095°01'4 8.8
2017-Sep-24 02:30N 29°39' W 094°58'611.6
2017-Sep-24 02:00N 29°34' W 094°55'611.6
2017-Sep-24 01:30N 29°29' W 094°52'713.5
2017-Sep-24 01:01N 29°23' W 094°48'  
2017-Sep-15 06:34N 25°39' W 079°30'112.8
2017-Sep-15 06:29N 25°40' W 079°30'1012.8
2017-Sep-15 05:42N 25°50' W 079°31'313.1
2017-Sep-15 05:30N 25°53' W 079°31'713.2
2017-Sep-15 05:00N 25°59' W 079°32'713.2
2017-Sep-15 04:30N 26°06' W 079°31'713.4
2017-Sep-15 04:00N 26°12' W 079°31'713.6
2017-Sep-15 03:30N 26°19' W 079°30'714.0
2017-Sep-15 03:00N 26°26' W 079°30'713.8
2017-Sep-15 02:30N 26°33' W 079°30'713.5
2017-Sep-15 01:59N 26°40' W 079°30'612.6
2017-Sep-15 01:30N 26°46' W 079°30'  
Track history (hours):
 
Tides and Currents Weather Stations Pressure Air Temp Water Temp Dewpoint Dewpoint Depression Visibility Wind Speed Wind Dir Waves Ship Positions

Lawrence H.gianella

Last reported at 2017-Sep-24 04:04 UTC. Time now 2017-Sep-25 13:38 UTC.
Position N 29°44' W 095°01'.

Type: Ship. MMSI: 367128000.

Date/timePositionNaut miles runAvg speedWind from/ knotsBaromVisibWave heightAir tempDewpointWater temp
2017-Sep-24 04:04N 29°44' W 095°01'0 0.0
2017-Sep-24 03:52N 29°44' W 095°01'0 0.1
2017-Sep-24 03:30N 29°44' W 095°01'1 2.5
2017-Sep-24 03:00N 29°42' W 095°01'4 8.8
2017-Sep-24 02:30N 29°39' W 094°58'611.6
2017-Sep-24 02:00N 29°34' W 094°55'611.6
2017-Sep-24 01:30N 29°29' W 094°52'713.5
2017-Sep-24 01:01N 29°23' W 094°48'  
2017-Sep-15 06:34N 25°39' W 079°30'112.8
2017-Sep-15 06:29N 25°40' W 079°30'1012.8
2017-Sep-15 05:42N 25°50' W 079°31'313.1
2017-Sep-15 05:30N 25°53' W 079°31'713.2
2017-Sep-15 05:00N 25°59' W 079°32'713.2
2017-Sep-15 04:30N 26°06' W 079°31'713.4
2017-Sep-15 04:00N 26°12' W 079°31'713.6
2017-Sep-15 03:30N 26°19' W 079°30'714.0
2017-Sep-15 03:00N 26°26' W 079°30'713.8
2017-Sep-15 02:30N 26°33' W 079°30'713.5
2017-Sep-15 01:59N 26°40' W 079°30'612.6
2017-Sep-15 01:30N 26°46' W 079°30'  

Dump ship's entire track history